sensor_id;sensor_type;location;lat;lon;timestamp;P1;durP1;ratioP1;P2;durP2;ratioP2
48026;SDS011;50714;49.208;5.364;2024-02-04T00:02:07;3.50;;;3.03;;
48026;SDS011;50714;49.208;5.364;2024-02-04T00:12:10;4.20;;;3.20;;
48026;SDS011;50714;49.208;5.364;2024-02-04T00:22:11;4.05;;;3.35;;
48026;SDS011;50714;49.208;5.364;2024-02-04T00:32:11;5.90;;;4.97;;
48026;SDS011;50714;49.208;5.364;2024-02-04T00:42:12;3.85;;;2.75;;
48026;SDS011;50714;49.208;5.364;2024-02-04T00:52:12;2.88;;;2.58;;
48026;SDS011;50714;49.208;5.364;2024-02-04T01:02:12;3.75;;;2.80;;
48026;SDS011;50714;49.208;5.364;2024-02-04T01:12:13;4.63;;;4.05;;
48026;SDS011;50714;49.208;5.364;2024-02-04T01:22:13;4.78;;;4.28;;
48026;SDS011;50714;49.208;5.364;2024-02-04T01:32:14;5.00;;;4.25;;
48026;SDS011;50714;49.208;5.364;2024-02-04T01:42:14;5.50;;;4.07;;
48026;SDS011;50714;49.208;5.364;2024-02-04T01:52:15;4.90;;;4.25;;
48026;SDS011;50714;49.208;5.364;2024-02-04T02:02:16;5.53;;;4.32;;
48026;SDS011;50714;49.208;5.364;2024-02-04T02:12:18;4.85;;;4.35;;
48026;SDS011;50714;49.208;5.364;2024-02-04T02:22:36;4.82;;;4.32;;
48026;SDS011;50714;49.208;5.364;2024-02-04T02:32:44;5.00;;;4.50;;
48026;SDS011;50714;49.208;5.364;2024-02-04T02:42:46;5.00;;;4.32;;
48026;SDS011;50714;49.208;5.364;2024-02-04T02:52:47;5.75;;;4.97;;
48026;SDS011;50714;49.208;5.364;2024-02-04T03:02:47;6.22;;;5.32;;
48026;SDS011;50714;49.208;5.364;2024-02-04T03:12:48;5.00;;;4.38;;
48026;SDS011;50714;49.208;5.364;2024-02-04T03:22:48;5.15;;;4.65;;
48026;SDS011;50714;49.208;5.364;2024-02-04T03:32:48;6.53;;;5.25;;
48026;SDS011;50714;49.208;5.364;2024-02-04T03:42:49;6.05;;;4.90;;
48026;SDS011;50714;49.208;5.364;2024-02-04T03:52:49;4.97;;;4.35;;
48026;SDS011;50714;49.208;5.364;2024-02-04T04:02:49;5.15;;;4.13;;
48026;SDS011;50714;49.208;5.364;2024-02-04T04:12:50;4.80;;;4.13;;
48026;SDS011;50714;49.208;5.364;2024-02-04T04:22:50;5.18;;;4.15;;
48026;SDS011;50714;49.208;5.364;2024-02-04T04:32:50;4.85;;;4.20;;
48026;SDS011;50714;49.208;5.364;2024-02-04T04:42:51;5.18;;;4.68;;
48026;SDS011;50714;49.208;5.364;2024-02-04T04:52:51;4.38;;;3.95;;
48026;SDS011;50714;49.208;5.364;2024-02-04T05:02:51;6.47;;;5.88;;
48026;SDS011;50714;49.208;5.364;2024-02-04T05:12:52;6.30;;;5.20;;
48026;SDS011;50714;49.208;5.364;2024-02-04T05:22:52;8.65;;;7.53;;
48026;SDS011;50714;49.208;5.364;2024-02-04T05:32:54;10.75;;;9.65;;
48026;SDS011;50714;49.208;5.364;2024-02-04T05:42:54;4.75;;;4.13;;
48026;SDS011;50714;49.208;5.364;2024-02-04T05:52:54;3.70;;;3.08;;
48026;SDS011;50714;49.208;5.364;2024-02-04T06:02:54;3.60;;;3.30;;
48026;SDS011;50714;49.208;5.364;2024-02-04T06:12:55;3.72;;;3.10;;
48026;SDS011;50714;49.208;5.364;2024-02-04T06:22:55;3.75;;;2.80;;
48026;SDS011;50714;49.208;5.364;2024-02-04T06:32:57;3.20;;;2.80;;
48026;SDS011;50714;49.208;5.364;2024-02-04T06:42:58;3.95;;;2.92;;
48026;SDS011;50714;49.208;5.364;2024-02-04T06:52:59;3.88;;;2.85;;
48026;SDS011;50714;49.208;5.364;2024-02-04T07:02:59;5.22;;;4.10;;
48026;SDS011;50714;49.208;5.364;2024-02-04T07:12:59;4.78;;;3.80;;
48026;SDS011;50714;49.208;5.364;2024-02-04T07:23:00;4.28;;;3.55;;
48026;SDS011;50714;49.208;5.364;2024-02-04T07:33:00;3.03;;;2.30;;
48026;SDS011;50714;49.208;5.364;2024-02-04T07:43:01;2.97;;;2.38;;
48026;SDS011;50714;49.208;5.364;2024-02-04T07:53:01;3.03;;;2.30;;
48026;SDS011;50714;49.208;5.364;2024-02-04T08:03:01;5.35;;;4.03;;
48026;SDS011;50714;49.208;5.364;2024-02-04T08:13:02;14.30;;;10.25;;
48026;SDS011;50714;49.208;5.364;2024-02-04T08:23:02;12.23;;;8.68;;
48026;SDS011;50714;49.208;5.364;2024-02-04T08:33:03;10.10;;;7.70;;
48026;SDS011;50714;49.208;5.364;2024-02-04T08:43:03;6.77;;;5.17;;
48026;SDS011;50714;49.208;5.364;2024-02-04T08:53:04;4.65;;;3.35;;
48026;SDS011;50714;49.208;5.364;2024-02-04T09:03:04;6.05;;;4.53;;
48026;SDS011;50714;49.208;5.364;2024-02-04T09:13:04;3.97;;;3.10;;
48026;SDS011;50714;49.208;5.364;2024-02-04T09:23:04;12.30;;;7.80;;
48026;SDS011;50714;49.208;5.364;2024-02-04T09:33:05;7.05;;;5.13;;
48026;SDS011;50714;49.208;5.364;2024-02-04T09:43:06;5.40;;;3.60;;
48026;SDS011;50714;49.208;5.364;2024-02-04T09:53:07;4.78;;;3.75;;
48026;SDS011;50714;49.208;5.364;2024-02-04T10:03:09;5.40;;;3.95;;
48026;SDS011;50714;49.208;5.364;2024-02-04T10:13:09;3.63;;;1.92;;
48026;SDS011;50714;49.208;5.364;2024-02-04T10:23:10;1.42;;;1.33;;
48026;SDS011;50714;49.208;5.364;2024-02-04T10:33:10;2.50;;;2.00;;
48026;SDS011;50714;49.208;5.364;2024-02-04T10:43:10;5.78;;;4.10;;
48026;SDS011;50714;49.208;5.364;2024-02-04T10:53:11;6.50;;;4.38;;
48026;SDS011;50714;49.208;5.364;2024-02-04T11:03:14;6.43;;;4.07;;
48026;SDS011;50714;49.208;5.364;2024-02-04T11:13:15;7.40;;;4.90;;
48026;SDS011;50714;49.208;5.364;2024-02-04T11:23:27;4.80;;;3.30;;
48026;SDS011;50714;49.208;5.364;2024-02-04T11:33:53;3.25;;;2.50;;
48026;SDS011;50714;49.208;5.364;2024-02-04T11:43:55;3.08;;;2.00;;
48026;SDS011;50714;49.208;5.364;2024-02-04T11:53:56;4.53;;;2.70;;
48026;SDS011;50714;49.208;5.364;2024-02-04T12:03:56;2.38;;;1.90;;
48026;SDS011;50714;49.208;5.364;2024-02-04T12:13:57;2.20;;;1.60;;
48026;SDS011;50714;49.208;5.364;2024-02-04T12:24:01;1.60;;;1.23;;
48026;SDS011;50714;49.208;5.364;2024-02-04T12:34:01;1.70;;;1.60;;
48026;SDS011;50714;49.208;5.364;2024-02-04T12:44:02;1.48;;;1.35;;
48026;SDS011;50714;49.208;5.364;2024-02-04T12:54:08;1.73;;;1.10;;
48026;SDS011;50714;49.208;5.364;2024-02-04T13:04:10;1.42;;;1.13;;
48026;SDS011;50714;49.208;5.364;2024-02-04T13:14:11;11.98;;;7.35;;
48026;SDS011;50714;49.208;5.364;2024-02-04T13:24:11;15.98;;;9.60;;
48026;SDS011;50714;49.208;5.364;2024-02-04T13:34:11;11.48;;;7.28;;
48026;SDS011;50714;49.208;5.364;2024-02-04T13:44:12;5.90;;;4.72;;
48026;SDS011;50714;49.208;5.364;2024-02-04T13:54:12;1.25;;;1.10;;
48026;SDS011;50714;49.208;5.364;2024-02-04T14:04:15;3.35;;;2.10;;
48026;SDS011;50714;49.208;5.364;2024-02-04T14:14:16;1.00;;;1.00;;
48026;SDS011;50714;49.208;5.364;2024-02-04T14:24:16;0.70;;;0.70;;
48026;SDS011;50714;49.208;5.364;2024-02-04T14:34:16;0.60;;;0.60;;
48026;SDS011;50714;49.208;5.364;2024-02-04T14:44:17;6.23;;;4.50;;
48026;SDS011;50714;49.208;5.364;2024-02-04T14:54:18;2.22;;;1.58;;
48026;SDS011;50714;49.208;5.364;2024-02-04T15:04:18;8.13;;;5.50;;
48026;SDS011;50714;49.208;5.364;2024-02-04T15:14:19;11.35;;;7.78;;
48026;SDS011;50714;49.208;5.364;2024-02-04T15:24:19;4.28;;;2.70;;
48026;SDS011;50714;49.208;5.364;2024-02-04T15:34:20;1.50;;;1.40;;
48026;SDS011;50714;49.208;5.364;2024-02-04T15:44:21;1.60;;;1.30;;
48026;SDS011;50714;49.208;5.364;2024-02-04T15:54:24;2.25;;;1.73;;
48026;SDS011;50714;49.208;5.364;2024-02-04T16:04:25;1.30;;;1.20;;
48026;SDS011;50714;49.208;5.364;2024-02-04T16:14:25;1.15;;;1.10;;
48026;SDS011;50714;49.208;5.364;2024-02-04T16:24:26;0.90;;;0.90;;
48026;SDS011;50714;49.208;5.364;2024-02-04T16:34:26;8.38;;;7.68;;
48026;SDS011;50714;49.208;5.364;2024-02-04T16:44:26;3.92;;;3.08;;
48026;SDS011;50714;49.208;5.364;2024-02-04T16:54:28;6.65;;;4.90;;
48026;SDS011;50714;49.208;5.364;2024-02-04T17:04:29;4.93;;;4.15;;
48026;SDS011;50714;49.208;5.364;2024-02-04T17:14:29;5.00;;;3.58;;
48026;SDS011;50714;49.208;5.364;2024-02-04T17:24:30;13.43;;;10.77;;
48026;SDS011;50714;49.208;5.364;2024-02-04T17:34:37;29.55;;;19.35;;
48026;SDS011;50714;49.208;5.364;2024-02-04T17:44:38;19.58;;;16.40;;
48026;SDS011;50714;49.208;5.364;2024-02-04T17:54:40;8.70;;;7.80;;
48026;SDS011;50714;49.208;5.364;2024-02-04T18:04:40;4.75;;;3.78;;
48026;SDS011;50714;49.208;5.364;2024-02-04T18:14:41;4.10;;;3.30;;
48026;SDS011;50714;49.208;5.364;2024-02-04T18:24:42;4.60;;;3.55;;
48026;SDS011;50714;49.208;5.364;2024-02-04T18:34:42;6.70;;;6.00;;
48026;SDS011;50714;49.208;5.364;2024-02-04T18:44:43;4.03;;;3.28;;
48026;SDS011;50714;49.208;5.364;2024-02-04T18:54:43;4.03;;;3.33;;
48026;SDS011;50714;49.208;5.364;2024-02-04T19:04:44;4.35;;;3.70;;
48026;SDS011;50714;49.208;5.364;2024-02-04T19:14:44;5.85;;;5.22;;
48026;SDS011;50714;49.208;5.364;2024-02-04T19:24:44;7.13;;;5.50;;
48026;SDS011;50714;49.208;5.364;2024-02-04T19:34:45;4.68;;;4.13;;
48026;SDS011;50714;49.208;5.364;2024-02-04T19:44:45;4.15;;;3.28;;
48026;SDS011;50714;49.208;5.364;2024-02-04T19:54:45;3.53;;;2.90;;
48026;SDS011;50714;49.208;5.364;2024-02-04T20:04:47;3.10;;;2.67;;
48026;SDS011;50714;49.208;5.364;2024-02-04T20:14:47;3.33;;;3.03;;
48026;SDS011;50714;49.208;5.364;2024-02-04T20:24:48;3.00;;;2.70;;
48026;SDS011;50714;49.208;5.364;2024-02-04T20:34:48;4.72;;;3.95;;
48026;SDS011;50714;49.208;5.364;2024-02-04T20:44:48;5.40;;;3.70;;
48026;SDS011;50714;49.208;5.364;2024-02-04T20:54:49;4.00;;;3.15;;
48026;SDS011;50714;49.208;5.364;2024-02-04T21:04:49;4.38;;;3.45;;
48026;SDS011;50714;49.208;5.364;2024-02-04T21:14:49;3.35;;;2.63;;
48026;SDS011;50714;49.208;5.364;2024-02-04T21:24:50;4.07;;;3.10;;
48026;SDS011;50714;49.208;5.364;2024-02-04T21:34:50;5.20;;;2.90;;
48026;SDS011;50714;49.208;5.364;2024-02-04T21:44:51;3.55;;;2.50;;
48026;SDS011;50714;49.208;5.364;2024-02-04T21:54:51;2.60;;;1.88;;
48026;SDS011;50714;49.208;5.364;2024-02-04T22:04:52;8.75;;;5.95;;
48026;SDS011;50714;49.208;5.364;2024-02-04T22:14:53;4.03;;;3.08;;
48026;SDS011;50714;49.208;5.364;2024-02-04T22:24:56;3.28;;;2.60;;
48026;SDS011;50714;49.208;5.364;2024-02-04T22:34:57;5.03;;;2.20;;
48026;SDS011;50714;49.208;5.364;2024-02-04T22:44:57;3.35;;;2.60;;
48026;SDS011;50714;49.208;5.364;2024-02-04T22:54:57;3.05;;;2.20;;
48026;SDS011;50714;49.208;5.364;2024-02-04T23:04:58;4.50;;;2.60;;
48026;SDS011;50714;49.208;5.364;2024-02-04T23:14:58;3.08;;;2.20;;
48026;SDS011;50714;49.208;5.364;2024-02-04T23:24:58;3.28;;;2.58;;
48026;SDS011;50714;49.208;5.364;2024-02-04T23:34:58;4.18;;;2.65;;
48026;SDS011;50714;49.208;5.364;2024-02-04T23:44:59;2.85;;;2.30;;
48026;SDS011;50714;49.208;5.364;2024-02-04T23:54:59;4.82;;;2.90;;
